OOCL Hamburg — VRZK9 — position and weather

sailwx.info

Track history (hours):
 
Tides and Currents Weather Stations Pressure Air Temp Water Temp Dewpoint Dewpoint Depression Visibility Wind Speed Wind Dir Waves Ship Positions

OOCL Hamburg

Last reported at 2016-Jul-20 06:00 UTC. Time now 2016-Jul-23 13:08 UTC.
Position N 32°24' E 029°24'.

Length 323 m; beam 42.8 m; draft 14.5 m.

Type: Cargo ship. MMSI: 477702000.

Wind from 310 at 15 knots

Waves 0.5 meters (2 feet), 6 second period

Barometer 1009.0 mb
Air temperature 26.0 ° C
Visibility: greater than 10.8 NM
Dewpoint 21.8 ° C
Water temperature 26.5 ° C

Date/timePositionNaut miles runAvg speedWind from/ knotsBaromVisibWave heightAir tempDewpointWater temp
2016-Jul-20 06:00N 32°24' E 029°24'134856.2 310 / 151009.010.8 0.526.021.826.5
2016-Jul-19 06:00N 34°12' E 002°36'67128.0 310 / 251013.010.8 1.525.020.725.4
2016-Jul-18 06:00N 36°00' E 016°06'9312.5 350 / 141020.010.8 1.024.018.025.0
2016-Jul-17 22:34N 36°30' E 014°17'1413.9
2016-Jul-17 21:33N 36°34' E 014°00'1413.6
2016-Jul-17 20:34N 36°38' E 013°44'1313.2
2016-Jul-17 19:34N 36°42' E 013°29'13313.3
2016-Jul-17 09:33N 37°28' E 010°52'5116.1
2016-Jul-17 06:22N 37°36' E 009°48'2815.3
2016-Jul-17 04:33N 37°42' E 009°15'3114.6
2016-Jul-17 02:26N 37°41' E 008°35'45214.5
2016-Jul-15 19:16N 36°33' W 000°45'1014.1
2016-Jul-15 18:33N 36°31' W 000°58'1413.9
2016-Jul-15 17:32N 36°29' W 001°15'1313.7
2016-Jul-15 16:33N 36°27' W 001°32'17714.8
2016-Jul-15 04:33N 36°01' W 005°09'1515.5
2016-Jul-15 03:33N 35°57' W 005°27'15514.9
2016-Jul-14 17:09N 35°59' W 008°38'8514.7
2016-Jul-14 11:24N 36°24' W 010°18'1214.4
2016-Jul-14 10:33N 36°28' W 010°33'1414.2
2016-Jul-14 09:33N 36°32' W 010°50'1413.9
2016-Jul-14 08:33N 36°37' W 011°06'1414.0
2016-Jul-14 07:33N 36°42' W 011°22'1413.9
2016-Jul-14 06:33N 36°47' W 011°39'1413.9
2016-Jul-14 05:33N 36°51' W 011°55'1914.0
2016-Jul-14 04:11N 36°58' W 012°18'4013.8
2016-Jul-14 01:16N 37°11' W 013°06'1214.0
2016-Jul-14 00:25N 37°15' W 013°20'1213.8
2016-Jul-13 23:32N 37°19' W 013°34'1313.8
2016-Jul-13 22:34N 37°23' W 013°50'1613.9
2016-Jul-13 21:24N 37°28' W 014°10'1714.0
2016-Jul-13 20:10N 37°33' W 014°30'1114.1
2016-Jul-13 19:24N 37°36' W 014°43'1214.2
2016-Jul-13 18:31N 37°40' W 014°58'1414.3
2016-Jul-13 17:33N 37°44' W 015°15'1414.4
2016-Jul-13 16:32N 37°48' W 015°33'1414.5
2016-Jul-13 15:33N 37°53' W 015°50'1414.4
2016-Jul-13 14:33N 37°57' W 016°07'1514.6
2016-Jul-13 13:33N 38°01' W 016°25'1414.5
2016-Jul-13 12:33N 38°05' W 016°43'1514.4
2016-Jul-13 11:29N 38°09' W 017°01'19216.7
2016-Jul-13 00:00N 38°54' W 021°00'11717.3 240 / 61026.1 5.4 1.021.019.520.0
2016-Jul-12 17:16N 39°25' W 023°25'9616.4
2016-Jul-12 11:22N 39°44' W 025°28'7116.7
2016-Jul-12 07:08N 39°57' W 026°58'4316.8
2016-Jul-12 04:33N 40°04' W 027°54'2216.9
2016-Jul-12 03:16N 40°08' W 028°22'1216.9
2016-Jul-12 02:33N 40°10' W 028°37'2016.9
2016-Jul-12 01:21N 40°13' W 029°04'3116.7
2016-Jul-11 23:31N 40°17' W 029°43'1816.6
2016-Jul-11 22:28N 40°20' W 030°06'1817.1
2016-Jul-11 21:24N 40°22' W 030°29'  
Track history (hours):
 
Tides and Currents Weather Stations Pressure Air Temp Water Temp Dewpoint Dewpoint Depression Visibility Wind Speed Wind Dir Waves Ship Positions

OOCL Hamburg

Last reported at 2016-Jul-20 06:00 UTC. Time now 2016-Jul-23 13:08 UTC.
Position N 32°24' E 029°24'.

Length 323 m; beam 42.8 m; draft 14.5 m.

Type: Cargo ship. MMSI: 477702000.

Wind from 310 at 15 knots

Waves 0.5 meters (2 feet), 6 second period

Barometer 1009.0 mb
Air temperature 26.0 ° C
Visibility: greater than 10.8 NM
Dewpoint 21.8 ° C
Water temperature 26.5 ° C

Date/timePositionNaut miles runAvg speedWind from/ knotsBaromVisibWave heightAir tempDewpointWater temp
2016-Jul-20 06:00N 32°24' E 029°24'134856.2 310 / 151009.010.8 0.526.021.826.5
2016-Jul-19 06:00N 34°12' E 002°36'67128.0 310 / 251013.010.8 1.525.020.725.4
2016-Jul-18 06:00N 36°00' E 016°06'9312.5 350 / 141020.010.8 1.024.018.025.0
2016-Jul-17 22:34N 36°30' E 014°17'1413.9
2016-Jul-17 21:33N 36°34' E 014°00'1413.6
2016-Jul-17 20:34N 36°38' E 013°44'1313.2
2016-Jul-17 19:34N 36°42' E 013°29'13313.3
2016-Jul-17 09:33N 37°28' E 010°52'5116.1
2016-Jul-17 06:22N 37°36' E 009°48'2815.3
2016-Jul-17 04:33N 37°42' E 009°15'3114.6
2016-Jul-17 02:26N 37°41' E 008°35'45214.5
2016-Jul-15 19:16N 36°33' W 000°45'1014.1
2016-Jul-15 18:33N 36°31' W 000°58'1413.9
2016-Jul-15 17:32N 36°29' W 001°15'1313.7
2016-Jul-15 16:33N 36°27' W 001°32'17714.8
2016-Jul-15 04:33N 36°01' W 005°09'1515.5
2016-Jul-15 03:33N 35°57' W 005°27'15514.9
2016-Jul-14 17:09N 35°59' W 008°38'8514.7
2016-Jul-14 11:24N 36°24' W 010°18'1214.4
2016-Jul-14 10:33N 36°28' W 010°33'1414.2
2016-Jul-14 09:33N 36°32' W 010°50'1413.9
2016-Jul-14 08:33N 36°37' W 011°06'1414.0
2016-Jul-14 07:33N 36°42' W 011°22'1413.9
2016-Jul-14 06:33N 36°47' W 011°39'1413.9
2016-Jul-14 05:33N 36°51' W 011°55'1914.0
2016-Jul-14 04:11N 36°58' W 012°18'4013.8
2016-Jul-14 01:16N 37°11' W 013°06'1214.0
2016-Jul-14 00:25N 37°15' W 013°20'1213.8
2016-Jul-13 23:32N 37°19' W 013°34'1313.8
2016-Jul-13 22:34N 37°23' W 013°50'1613.9
2016-Jul-13 21:24N 37°28' W 014°10'1714.0
2016-Jul-13 20:10N 37°33' W 014°30'1114.1
2016-Jul-13 19:24N 37°36' W 014°43'1214.2
2016-Jul-13 18:31N 37°40' W 014°58'1414.3
2016-Jul-13 17:33N 37°44' W 015°15'1414.4
2016-Jul-13 16:32N 37°48' W 015°33'1414.5
2016-Jul-13 15:33N 37°53' W 015°50'1414.4
2016-Jul-13 14:33N 37°57' W 016°07'1514.6
2016-Jul-13 13:33N 38°01' W 016°25'1414.5
2016-Jul-13 12:33N 38°05' W 016°43'1514.4
2016-Jul-13 11:29N 38°09' W 017°01'19216.7
2016-Jul-13 00:00N 38°54' W 021°00'11717.3 240 / 61026.1 5.4 1.021.019.520.0
2016-Jul-12 17:16N 39°25' W 023°25'9616.4
2016-Jul-12 11:22N 39°44' W 025°28'7116.7
2016-Jul-12 07:08N 39°57' W 026°58'4316.8
2016-Jul-12 04:33N 40°04' W 027°54'2216.9
2016-Jul-12 03:16N 40°08' W 028°22'1216.9
2016-Jul-12 02:33N 40°10' W 028°37'2016.9
2016-Jul-12 01:21N 40°13' W 029°04'3116.7
2016-Jul-11 23:31N 40°17' W 029°43'1816.6
2016-Jul-11 22:28N 40°20' W 030°06'1817.1
2016-Jul-11 21:24N 40°22' W 030°29'  

Dump ship's entire track history